createdAt,value
2022-12-11T00:01:45.432Z,102181.69
2022-12-11T00:06:51.263Z,102197.34
2022-12-11T00:11:57.231Z,102211.81
2022-12-11T00:17:03.701Z,102192.09
2022-12-11T00:22:09.469Z,102193.75
2022-12-11T00:27:15.109Z,102206.19
2022-12-11T00:32:20.763Z,102192.53
2022-12-11T00:37:26.683Z,102198.19
2022-12-11T00:42:32.320Z,102178.47
2022-12-11T00:47:37.905Z,102175.22
2022-12-11T00:52:43.480Z,102179.69
2022-12-11T00:57:53.691Z,102177.38
2022-12-11T01:02:59.253Z,102165.38
2022-12-11T01:08:05.885Z,102167.75
2022-12-11T01:13:11.944Z,102161.06
2022-12-11T01:18:17.771Z,102155.16
2022-12-11T01:23:23.320Z,102153.56
2022-12-11T01:28:28.974Z,102156.06
2022-12-11T01:33:34.550Z,102156.06
2022-12-11T01:38:40.190Z,102173.56
2022-12-11T01:44:06.989Z,102171.38
2022-12-11T01:49:16.113Z,102169.97
2022-12-11T01:54:24.576Z,102158.91
2022-12-11T01:59:34.806Z,102135.19
2022-12-11T02:04:44.324Z,102144.41
2022-12-11T02:09:50.831Z,102155.56
2022-12-11T02:15:43.184Z,102168.66
2022-12-11T02:20:59.991Z,102170.41
2022-12-11T02:26:38.284Z,102173.97
2022-12-11T02:31:54.960Z,102165.63
2022-12-11T02:37:09.940Z,102129.28
2022-12-11T02:42:19.009Z,102158.22
2022-12-11T02:47:27.966Z,102157.56
2022-12-11T02:52:35.339Z,102158.06
2022-12-11T02:57:52.102Z,102151.16
2022-12-11T03:02:58.893Z,102153.81
2022-12-11T03:08:04.954Z,102150.91
2022-12-11T03:13:11.040Z,102149.84
2022-12-11T03:18:19.036Z,102156.97
2022-12-11T03:23:38.247Z,102173.19
2022-12-11T03:29:07.627Z,102159.56
2022-12-11T03:34:26.337Z,102153.97
2022-12-11T03:39:36.858Z,102161.56
2022-12-11T03:44:50.607Z,102163.03
2022-12-11T03:49:59.321Z,102167.22
2022-12-11T03:55:08.034Z,102173.63
2022-12-11T04:00:18.962Z,102153.16
2022-12-11T04:05:24.730Z,102134.28
2022-12-11T04:10:30.004Z,102131.19
2022-12-11T04:15:35.993Z,102127.44
2022-12-11T04:21:02.557Z,102144.53
2022-12-11T04:26:13.881Z,102165.34
2022-12-11T04:31:22.559Z,102165.50
2022-12-11T04:36:27.857Z,102178.16
2022-12-11T04:41:33.472Z,102176.69
2022-12-11T04:46:39.175Z,102182.06
2022-12-11T04:51:45.547Z,102178.47
2022-12-11T04:56:52.354Z,102176.19
2022-12-11T05:01:58.562Z,102153.03
2022-12-11T05:07:04.339Z,102153.63
2022-12-11T05:12:09.883Z,102177.16
2022-12-11T05:17:15.107Z,102181.03
2022-12-11T05:22:20.887Z,102191.06
2022-12-11T05:27:26.543Z,102174.41
2022-12-11T05:32:33.337Z,102181.13
2022-12-11T05:37:38.575Z,102193.03
2022-12-11T05:42:44.093Z,102188.72
2022-12-11T05:47:49.773Z,102182.88
2022-12-11T05:52:55.894Z,102184.78
2022-12-11T05:58:01.961Z,102182.88
2022-12-11T06:03:08.023Z,102196.59
2022-12-11T06:08:15.533Z,102198.19
2022-12-11T06:13:21.238Z,102211.38
2022-12-11T06:18:26.935Z,102218.88
2022-12-11T06:23:33.352Z,102225.38
2022-12-11T06:28:39.854Z,102222.63
2022-12-11T06:33:45.214Z,102233.19
2022-12-11T06:38:51.821Z,102234.38
2022-12-11T06:43:57.346Z,102225.84
2022-12-11T06:49:05.120Z,102219.78
2022-12-11T06:54:10.925Z,102187.81
2022-12-11T06:59:16.787Z,102211.31
2022-12-11T07:04:25.695Z,102217.16
2022-12-11T07:09:31.429Z,102219.50
2022-12-11T07:14:37.365Z,102190.78
2022-12-11T07:19:43.314Z,102240.41
2022-12-11T07:24:51.822Z,102235.31
2022-12-11T07:29:57.817Z,102242.00
2022-12-11T07:35:03.626Z,102240.97
2022-12-11T07:40:10.440Z,102230.63
2022-12-11T07:45:16.233Z,102227.78
2022-12-11T07:50:21.837Z,102226.50
2022-12-11T07:55:27.421Z,102226.34
2022-12-11T08:00:32.824Z,102222.47
2022-12-11T08:05:38.368Z,102212.06
2022-12-11T08:10:44.136Z,102210.59
2022-12-11T08:15:50.255Z,102184.75
2022-12-11T08:20:55.855Z,102213.03
2022-12-11T08:26:05.162Z,102226.53
2022-12-11T08:31:12.869Z,102218.59
2022-12-11T08:36:23.689Z,102234.03
2022-12-11T08:41:31.384Z,102239.66
2022-12-11T08:46:37.166Z,102232.00
2022-12-11T08:51:43.131Z,102213.34
2022-12-11T08:56:50.484Z,102231.06
2022-12-11T09:02:00.383Z,102229.25
2022-12-11T09:07:07.087Z,102233.59
2022-12-11T09:12:13.480Z,102221.88
2022-12-11T09:17:18.896Z,102207.06
2022-12-11T09:22:24.335Z,102193.47
2022-12-11T09:27:29.868Z,102203.34
2022-12-11T09:32:35.131Z,102191.88
2022-12-11T09:37:40.640Z,102192.44
2022-12-11T09:43:18.898Z,102204.44
2022-12-11T09:48:27.258Z,102204.22
2022-12-11T09:53:37.448Z,102198.97
2022-12-11T09:59:18.337Z,102200.41
2022-12-11T10:04:48.613Z,102204.59
2022-12-11T10:10:37.275Z,102199.59
2022-12-11T10:16:29.235Z,102186.88
2022-12-11T10:21:47.789Z,102189.81
2022-12-11T10:27:01.230Z,102195.16
2022-12-11T10:32:24.388Z,102210.41
2022-12-11T10:37:30.284Z,102216.88
2022-12-11T10:42:35.595Z,102207.34
2022-12-11T10:47:41.821Z,102176.97
2022-12-11T10:52:47.467Z,102211.47
2022-12-11T10:58:20.361Z,102205.13
2022-12-11T11:03:28.519Z,102192.31
2022-12-11T11:08:49.380Z,102174.41
2022-12-11T11:14:21.381Z,102187.47
2022-12-11T11:19:35.783Z,102190.00
2022-12-11T11:25:17.570Z,102190.94
2022-12-11T11:30:38.901Z,102185.00
2022-12-11T11:36:06.862Z,102181.16
2022-12-11T11:41:52.030Z,102184.84
2022-12-11T11:47:21.010Z,102184.94
2022-12-11T11:52:37.464Z,102172.75
2022-12-11T11:58:01.941Z,102168.50
2022-12-11T12:03:32.236Z,102164.34
2022-12-11T12:08:38.552Z,102177.19
2022-12-11T12:13:57.838Z,102191.06
2022-12-11T12:19:38.049Z,102190.19
2022-12-11T12:24:53.263Z,102199.28
2022-12-11T12:30:21.793Z,102218.50
2022-12-11T12:35:41.498Z,102211.41
2022-12-11T12:41:03.301Z,102217.88
2022-12-11T12:46:22.959Z,102228.06
2022-12-11T12:51:29.640Z,102213.66
2022-12-11T12:56:40.022Z,102214.41
2022-12-11T13:01:50.295Z,102220.31
2022-12-11T13:06:56.961Z,102236.03
2022-12-11T13:12:16.286Z,102232.72
2022-12-11T13:17:22.454Z,102244.72
2022-12-11T13:22:27.960Z,102250.16
2022-12-11T13:27:40.199Z,102270.31
2022-12-11T13:33:08.626Z,102261.69
2022-12-11T13:38:21.816Z,102253.16
2022-12-11T13:43:31.955Z,102274.94
2022-12-11T13:48:43.179Z,102271.41
2022-12-11T13:53:50.774Z,102278.91
2022-12-11T13:58:57.712Z,102268.63
2022-12-11T14:04:17.631Z,102260.94
2022-12-11T14:09:26.865Z,102264.47
2022-12-11T14:14:46.620Z,102269.53
2022-12-11T14:19:52.838Z,102264.13
2022-12-11T14:25:04.286Z,102280.94
2022-12-11T14:30:13.795Z,102279.34
2022-12-11T14:35:38.840Z,102277.03
2022-12-11T14:40:50.782Z,102283.25
2022-12-11T14:46:01.407Z,102263.91
2022-12-11T14:51:15.199Z,102278.44
2022-12-11T14:56:28.300Z,102287.88
2022-12-11T15:01:39.251Z,102299.78
2022-12-11T15:06:47.370Z,102299.00
2022-12-11T15:11:55.978Z,102271.56
2022-12-11T15:17:01.773Z,102275.06
2022-12-11T15:22:13.743Z,102267.97
2022-12-11T15:27:34.767Z,102276.91
2022-12-11T15:32:40.311Z,102258.16
2022-12-11T15:37:55.547Z,102275.69
2022-12-11T15:43:02.841Z,102281.50
2022-12-11T15:48:11.963Z,102269.50
2022-12-11T15:53:17.937Z,102274.50
2022-12-11T15:58:25.199Z,102276.09
2022-12-11T16:03:30.999Z,102273.22
2022-12-11T16:08:37.273Z,102263.31
2022-12-11T16:13:42.739Z,102268.25
2022-12-11T16:18:49.081Z,102258.44
2022-12-11T16:23:54.894Z,102264.44
2022-12-11T16:29:00.469Z,102268.06
2022-12-11T16:34:05.974Z,102252.91
2022-12-11T16:39:13.097Z,102275.00
2022-12-11T16:44:26.027Z,102288.50
2022-12-11T16:49:32.104Z,102273.63
2022-12-11T16:54:37.400Z,102281.28
2022-12-11T16:59:44.004Z,102274.81
2022-12-11T17:04:53.654Z,102279.25
2022-12-11T17:10:02.995Z,102269.47
2022-12-11T17:15:11.476Z,102260.69
2022-12-11T17:20:18.746Z,102266.13
2022-12-11T17:25:25.423Z,102257.78
2022-12-11T17:30:30.783Z,102260.16
2022-12-11T17:35:37.137Z,102260.56
2022-12-11T17:40:44.262Z,102258.75
2022-12-11T17:45:53.185Z,102254.22
2022-12-11T17:50:59.223Z,102241.91
2022-12-11T17:56:07.586Z,102236.91
2022-12-11T18:01:14.329Z,102257.13
2022-12-11T18:06:20.114Z,102251.00
2022-12-11T18:11:26.389Z,102242.56
2022-12-11T18:16:36.130Z,102253.75
2022-12-11T18:21:44.347Z,102267.19
2022-12-11T18:26:50.554Z,102267.59
2022-12-11T18:31:56.300Z,102239.66
2022-12-11T18:37:01.931Z,102241.16
2022-12-11T18:47:39.461Z,102252.38
2022-12-11T18:52:45.113Z,102248.19
2022-12-11T18:57:50.846Z,102260.94
2022-12-11T19:02:58.746Z,102265.88
2022-12-11T19:08:04.866Z,102262.78
2022-12-11T19:13:11.200Z,102276.47
2022-12-11T19:18:16.713Z,102270.88
2022-12-11T19:23:23.660Z,102289.78
2022-12-11T19:28:29.207Z,102281.78
2022-12-11T19:33:35.329Z,102267.13
2022-12-11T19:38:42.141Z,102284.56
2022-12-11T19:43:48.253Z,102276.72
2022-12-11T19:48:55.818Z,102284.72
2022-12-11T19:54:07.619Z,102262.44
2022-12-11T19:59:17.261Z,102280.38
2022-12-11T20:04:22.903Z,102285.63
2022-12-11T20:09:28.434Z,102283.72
2022-12-11T20:14:33.871Z,102282.97
2022-12-11T20:19:39.718Z,102291.00
2022-12-11T20:24:45.301Z,102275.34
2022-12-11T20:29:50.756Z,102290.66
2022-12-11T20:34:59.895Z,102301.09
2022-12-11T20:40:06.495Z,102307.31
2022-12-11T20:45:12.801Z,102303.50
2022-12-11T20:50:18.694Z,102298.69
2022-12-11T20:55:24.215Z,102297.38
2022-12-11T21:00:29.984Z,102298.41
2022-12-11T21:05:42.794Z,102265.50
2022-12-11T21:10:48.422Z,102272.25
2022-12-11T21:16:00.588Z,102304.41
2022-12-11T21:21:06.985Z,102309.59
2022-12-11T21:26:12.601Z,102298.16
2022-12-11T21:31:20.327Z,102299.97
2022-12-11T21:36:25.886Z,102293.47
2022-12-11T21:41:32.290Z,102301.09
2022-12-11T21:46:37.966Z,102278.50
2022-12-11T21:51:47.036Z,102286.69
2022-12-11T21:56:56.512Z,102272.78
2022-12-11T22:02:02.255Z,102281.28
2022-12-11T22:07:08.038Z,102278.66
2022-12-11T22:12:27.597Z,102278.03
2022-12-11T22:17:33.691Z,102242.25
2022-12-11T22:22:39.014Z,102277.13
2022-12-11T22:27:44.624Z,102275.09
2022-12-11T22:32:50.265Z,102275.34
2022-12-11T22:37:56.049Z,102284.31
2022-12-11T22:43:01.596Z,102291.19
2022-12-11T22:48:09.986Z,102283.50
2022-12-11T22:53:15.587Z,102276.28
2022-12-11T22:58:22.129Z,102272.03
2022-12-11T23:03:28.663Z,102282.47
2022-12-11T23:08:35.051Z,102281.44
2022-12-11T23:13:41.084Z,102269.94
2022-12-11T23:18:46.927Z,102283.84
2022-12-11T23:23:52.794Z,102278.91
2022-12-11T23:29:00.410Z,102282.34
2022-12-11T23:34:06.022Z,102294.47
2022-12-11T23:39:12.015Z,102308.63
2022-12-11T23:44:17.499Z,102290.88
2022-12-11T23:49:23.141Z,102294.06
2022-12-11T23:54:28.741Z,102277.81
2022-12-11T23:59:34.338Z,102275.28
